createdAt,value
2019-03-29T00:01:37.579Z,20.27
2019-03-29T00:06:40.268Z,21.23
2019-03-29T00:11:42.972Z,21.43
2019-03-29T00:16:45.816Z,21.93
2019-03-29T00:21:48.401Z,23.47
2019-03-29T00:26:54.521Z,22.83
2019-03-29T00:31:57.046Z,23.00
2019-03-29T00:37:01.138Z,22.20
2019-03-29T00:42:06.988Z,23.33
2019-03-29T00:47:09.609Z,25.27
2019-03-29T00:52:12.204Z,23.17
2019-03-29T00:57:14.863Z,24.47
2019-03-29T01:02:19.062Z,24.00
2019-03-29T01:07:22.136Z,23.63
2019-03-29T01:12:26.199Z,23.00
2019-03-29T01:17:28.865Z,24.70
2019-03-29T01:22:32.016Z,22.80
2019-03-29T01:27:35.116Z,22.23
2019-03-29T01:32:37.738Z,22.77
2019-03-29T01:37:40.332Z,22.00
2019-03-29T01:42:45.032Z,21.50
2019-03-29T01:47:47.930Z,22.33
2019-03-29T01:52:50.480Z,21.13
2019-03-29T01:57:53.032Z,21.77
2019-03-29T02:02:55.586Z,21.87
2019-03-29T02:07:58.261Z,21.77
2019-03-29T02:13:03.160Z,20.53
2019-03-29T02:18:05.827Z,22.10
2019-03-29T02:23:08.460Z,21.00
2019-03-29T02:28:13.824Z,21.77
2019-03-29T02:33:16.435Z,21.07
2019-03-29T02:38:19.003Z,22.33
2019-03-29T02:43:23.870Z,20.63
2019-03-29T02:48:26.417Z,20.63
2019-03-29T02:53:31.385Z,21.77
2019-03-29T02:58:33.913Z,21.07
2019-03-29T03:03:39.527Z,20.97
2019-03-29T03:08:42.334Z,21.33
2019-03-29T03:13:46.169Z,21.10
2019-03-29T03:18:52.603Z,22.57
2019-03-29T03:23:55.254Z,22.07
2019-03-29T03:28:59.320Z,21.67
2019-03-29T03:34:02.511Z,21.07
2019-03-29T03:39:06.941Z,21.43
2019-03-29T03:44:09.536Z,21.53
2019-03-29T03:49:12.224Z,23.80
2019-03-29T03:54:16.413Z,22.80
2019-03-29T03:59:19.890Z,23.00
2019-03-29T04:04:26.213Z,23.27
2019-03-29T04:09:48.454Z,23.63
2019-03-29T04:14:36.272Z,24.03
2019-03-29T04:19:41.515Z,23.77
2019-03-29T04:24:44.149Z,22.63
2019-03-29T04:29:46.718Z,24.33
2019-03-29T04:34:51.513Z,24.27
2019-03-29T04:40:06.990Z,24.73
2019-03-29T04:44:59.947Z,24.40
2019-03-29T04:50:02.661Z,24.80
2019-03-29T04:55:05.625Z,26.23
2019-03-29T05:00:08.593Z,25.87
2019-03-29T05:05:12.726Z,24.10
2019-03-29T05:10:21.628Z,24.80
2019-03-29T05:15:20.953Z,24.97
2019-03-29T05:20:25.914Z,24.37
2019-03-29T05:25:28.576Z,27.17
2019-03-29T05:30:31.111Z,26.40
2019-03-29T05:35:33.776Z,26.67
2019-03-29T05:40:36.384Z,27.43
2019-03-29T05:45:41.624Z,27.90
2019-03-29T05:50:44.164Z,26.77
2019-03-29T05:55:48.468Z,27.67
2019-03-29T06:00:51.312Z,26.97
2019-03-29T06:05:54.067Z,27.77
2019-03-29T06:10:56.629Z,27.73
2019-03-29T06:15:59.446Z,28.37
2019-03-29T06:21:03.935Z,27.50
2019-03-29T06:26:06.492Z,27.63
2019-03-29T06:31:11.714Z,27.90
2019-03-29T06:36:16.003Z,26.97
2019-03-29T06:41:18.643Z,30.77
2019-03-29T06:46:21.440Z,31.40
2019-03-29T06:51:27.020Z,31.00
2019-03-29T06:56:29.919Z,31.03
2019-03-29T07:01:32.665Z,32.77
2019-03-29T07:06:40.199Z,31.70
2019-03-29T07:11:43.976Z,30.67
2019-03-29T07:16:46.781Z,31.80
2019-03-29T07:21:49.315Z,32.17
2019-03-29T07:26:52.203Z,31.57
2019-03-29T07:31:54.854Z,32.57
2019-03-29T07:36:57.670Z,34.20
2019-03-29T07:42:00.560Z,32.80
2019-03-29T07:47:09.142Z,35.07
2019-03-29T07:52:11.768Z,39.03
2019-03-29T07:57:21.158Z,42.67
2019-03-29T08:02:23.727Z,47.43
2019-03-29T08:07:27.715Z,50.07
2019-03-29T08:12:31.064Z,49.03
2019-03-29T08:17:35.634Z,50.70
2019-03-29T08:22:38.202Z,50.53
2019-03-29T08:27:42.152Z,47.27
2019-03-29T08:32:49.047Z,49.20
2019-03-29T08:37:52.259Z,48.37
2019-03-29T08:42:55.276Z,48.57
2019-03-29T08:47:59.253Z,49.43
2019-03-29T08:53:01.924Z,48.83
2019-03-29T08:58:04.660Z,49.97
2019-03-29T09:03:07.645Z,51.90
2019-03-29T09:08:15.265Z,50.87
2019-03-29T09:13:21.409Z,54.60
2019-03-29T09:18:26.107Z,55.63
2019-03-29T09:23:34.970Z,57.60
2019-03-29T09:28:39.801Z,57.27
2019-03-29T09:33:46.391Z,58.37
2019-03-29T09:38:50.029Z,58.13
2019-03-29T09:43:59.964Z,55.00
2019-03-29T09:49:08.656Z,52.27
2019-03-29T09:54:14.371Z,50.60
2019-03-29T09:59:33.418Z,50.50
2019-03-29T10:04:52.198Z,56.30
2019-03-29T10:10:03.240Z,54.37
2019-03-29T10:15:13.416Z,52.80
2019-03-29T10:20:18.308Z,49.80
2019-03-29T10:25:21.742Z,50.63
2019-03-29T10:30:38.274Z,50.67
2019-03-29T10:35:51.634Z,50.17
2019-03-29T10:40:47.030Z,49.13
2019-03-29T10:45:51.992Z,45.77
2019-03-29T10:50:54.534Z,46.80
2019-03-29T10:55:57.348Z,47.17
2019-03-29T11:00:59.893Z,46.67
2019-03-29T11:19:19.050Z,42.03
2019-03-29T11:24:22.123Z,37.53
2019-03-29T11:33:34.397Z,42.33
2019-03-29T11:38:36.980Z,39.53
2019-03-29T11:43:39.658Z,39.67
2019-03-29T11:48:44.072Z,40.67
2019-03-29T11:53:50.847Z,44.20
2019-03-29T11:58:52.261Z,45.57
2019-03-29T12:03:55.046Z,46.47
2019-03-29T12:08:57.627Z,44.97
2019-03-29T12:14:00.458Z,45.03
2019-03-29T12:37:43.988Z,39.73
2019-03-29T12:42:46.651Z,40.27
2019-03-29T12:51:33.864Z,40.73
2019-03-29T12:56:36.705Z,40.13
2019-03-29T13:01:40.841Z,39.70
2019-03-29T13:06:43.381Z,37.43
2019-03-29T13:11:46.033Z,37.53
2019-03-29T13:16:48.579Z,38.03
2019-03-29T13:21:51.159Z,36.60
2019-03-29T13:26:54.395Z,34.93
2019-03-29T13:31:57.342Z,33.73
2019-03-29T13:37:01.692Z,34.13
2019-03-29T13:42:04.901Z,34.23
2019-03-29T13:47:07.447Z,36.70
2019-03-29T13:52:14.237Z,37.17
2019-03-29T13:57:16.799Z,38.23
2019-03-29T14:02:19.688Z,38.27
2019-03-29T14:07:22.285Z,37.77
2019-03-29T14:12:25.226Z,32.77
2019-03-29T14:17:27.781Z,32.10
2019-03-29T14:22:30.668Z,33.30
2019-03-29T14:27:33.248Z,34.17
2019-03-29T14:32:36.070Z,35.90
2019-03-29T14:37:38.625Z,34.23
2019-03-29T14:42:41.443Z,32.80
2019-03-29T14:47:44.257Z,32.03
2019-03-29T14:52:49.497Z,34.20
2019-03-29T14:57:52.053Z,34.90
2019-03-29T15:02:54.803Z,33.83
2019-03-29T15:07:59.867Z,31.60
2019-03-29T15:13:02.435Z,31.07
2019-03-29T15:18:05.050Z,33.33
2019-03-29T15:23:07.736Z,32.53
2019-03-29T15:28:10.389Z,32.70
2019-03-29T15:33:19.195Z,30.80
2019-03-29T15:38:21.837Z,30.17
2019-03-29T15:43:24.606Z,28.77
2019-03-29T15:48:27.198Z,27.73
2019-03-29T15:53:32.204Z,29.40
2019-03-29T15:58:34.755Z,25.63
2019-03-29T16:03:38.871Z,26.70
2019-03-29T16:08:41.432Z,25.90
2019-03-29T16:13:46.796Z,24.10
2019-03-29T16:18:49.338Z,23.03
2019-03-29T16:23:52.014Z,21.13
2019-03-29T16:28:54.616Z,22.70
2019-03-29T16:33:57.231Z,23.60
2019-03-29T16:38:59.787Z,23.03
2019-03-29T16:44:05.495Z,22.60
2019-03-29T16:49:08.088Z,22.77
2019-03-29T16:54:10.633Z,23.67
2019-03-29T16:59:13.241Z,23.17
2019-03-29T17:04:15.834Z,23.87
2019-03-29T17:09:18.479Z,25.10
2019-03-29T17:14:21.032Z,24.27
2019-03-29T17:19:23.991Z,25.00
2019-03-29T17:24:26.525Z,25.63
2019-03-29T17:29:31.893Z,24.60
2019-03-29T17:34:34.454Z,24.10
2019-03-29T17:39:37.103Z,25.03
2019-03-29T17:44:40.875Z,38.23
2019-03-29T17:49:43.429Z,43.03
2019-03-29T17:54:48.707Z,44.17
2019-03-29T17:59:51.285Z,47.00
2019-03-29T18:04:53.878Z,47.63
2019-03-29T18:09:56.433Z,46.57
2019-03-29T18:15:00.425Z,47.53
2019-03-29T18:20:03.401Z,49.13
2019-03-29T18:25:06.124Z,47.63
2019-03-29T18:30:09.525Z,47.97
2019-03-29T18:35:12.202Z,47.60
2019-03-29T18:40:24.549Z,47.53
2019-03-29T18:45:27.170Z,49.73
2019-03-29T18:50:29.733Z,47.93
2019-03-29T18:55:32.315Z,49.00
2019-03-29T19:00:35.541Z,50.10
2019-03-29T19:05:38.132Z,51.57
2019-03-29T19:10:43.676Z,48.63
2019-03-29T19:15:46.255Z,51.23
2019-03-29T19:20:51.493Z,49.23
2019-03-29T19:25:56.850Z,51.63
2019-03-29T19:30:59.459Z,49.23
2019-03-29T19:36:02.333Z,50.57
2019-03-29T19:41:05.236Z,50.23
2019-03-29T19:46:09.257Z,49.30
2019-03-29T19:51:11.773Z,52.33
2019-03-29T19:56:16.331Z,52.27
2019-03-29T20:01:19.026Z,51.47
2019-03-29T20:06:21.673Z,51.87
2019-03-29T20:11:24.431Z,52.80
2019-03-29T20:16:27.121Z,53.50
2019-03-29T20:21:29.922Z,53.97
2019-03-29T20:26:32.525Z,54.50
2019-03-29T20:31:35.120Z,52.77
2019-03-29T20:36:37.683Z,55.07
2019-03-29T20:41:40.431Z,55.27
2019-03-29T20:46:43.043Z,54.03
2019-03-29T20:51:45.642Z,55.83
2019-03-29T20:56:48.457Z,54.83
2019-03-29T21:01:53.037Z,55.57
2019-03-29T21:06:55.614Z,56.87
2019-03-29T21:11:58.353Z,55.23
2019-03-29T21:17:02.337Z,58.27
2019-03-29T21:22:04.913Z,58.70
2019-03-29T21:27:07.607Z,56.57
2019-03-29T21:32:13.170Z,57.20
2019-03-29T21:37:15.727Z,57.23
2019-03-29T21:42:18.575Z,58.97
2019-03-29T21:47:21.129Z,59.77
2019-03-29T21:52:23.694Z,61.00
2019-03-29T21:57:29.272Z,60.93
2019-03-29T22:02:33.220Z,62.40
2019-03-29T22:07:35.798Z,61.40
2019-03-29T22:12:38.457Z,61.47
2019-03-29T22:17:41.367Z,61.37
2019-03-29T22:22:45.396Z,59.77
2019-03-29T22:27:47.950Z,61.97
2019-03-29T22:32:50.594Z,63.97
2019-03-29T22:37:53.135Z,63.67
2019-03-29T22:42:55.784Z,64.90
2019-03-29T22:47:59.482Z,64.83
2019-03-29T22:53:02.459Z,67.63
2019-03-29T22:58:05.036Z,63.43
2019-03-29T23:03:08.354Z,63.80
2019-03-29T23:08:10.896Z,65.60
2019-03-29T23:13:16.461Z,66.33
2019-03-29T23:18:21.780Z,62.13
2019-03-29T23:23:24.324Z,62.97
2019-03-29T23:28:26.867Z,63.23
2019-03-29T23:33:29.740Z,62.73
2019-03-29T23:38:32.367Z,62.07
2019-03-29T23:43:39.790Z,62.87
2019-03-29T23:48:45.484Z,62.23
2019-03-29T23:53:48.018Z,62.17
2019-03-29T23:58:50.687Z,63.87
